createdAt,value
2016-10-19T00:00:30.637Z,7.4
2016-10-19T00:01:30.693Z,7.43
2016-10-19T00:02:30.714Z,7.26
2016-10-19T00:03:30.405Z,7.36
2016-10-19T00:04:30.723Z,7.37
2016-10-19T00:05:30.774Z,7.31
2016-10-19T00:06:30.496Z,7.36
2016-10-19T00:07:30.781Z,7.36
2016-10-19T00:08:30.801Z,7.26
2016-10-19T00:09:30.801Z,7.31
2016-10-19T00:10:30.808Z,7.23
2016-10-19T00:11:30.833Z,7.28
2016-10-19T00:12:30.836Z,7.23
2016-10-19T00:13:30.872Z,7.28
2016-10-19T00:14:30.893Z,7.25
2016-10-19T00:15:30.592Z,7.19
2016-10-19T00:16:30.971Z,7.14
2016-10-19T00:17:31.112Z,7.28
2016-10-19T00:18:31.011Z,7.21
2016-10-19T00:19:30.984Z,7.22
2016-10-19T00:20:30.691Z,7.15
2016-10-19T00:21:30.401Z,7.13
2016-10-19T00:22:31.025Z,7.14
2016-10-19T00:23:31.048Z,7.19
2016-10-19T00:24:30.745Z,7.13
2016-10-19T00:25:30.812Z,7.07
2016-10-19T00:26:30.796Z,7.05
2016-10-19T00:27:31.112Z,7.07
2016-10-19T00:28:31.130Z,7.01
2016-10-19T00:29:30.892Z,7.04
2016-10-19T00:30:30.845Z,7.08
2016-10-19T00:31:31.282Z,7.04
2016-10-19T00:32:30.890Z,7.05
2016-10-19T00:33:31.197Z,7.01
2016-10-19T00:34:31.221Z,7.05
2016-10-19T00:35:31.242Z,7.03
2016-10-19T00:36:31.278Z,7.05
2016-10-19T00:37:30.747Z,7.07
2016-10-19T00:38:30.976Z,7.07
2016-10-19T00:39:30.997Z,7.1
2016-10-19T00:40:31.099Z,7.07
2016-10-19T00:41:31.091Z,7.03
2016-10-19T00:42:31.078Z,7.05
2016-10-19T00:43:31.381Z,7.04
2016-10-19T00:44:31.468Z,7.01
2016-10-19T00:45:31.479Z,7.05
2016-10-19T00:46:30.950Z,7.05
2016-10-19T00:47:31.137Z,7.03
2016-10-19T00:48:31.138Z,7.03
2016-10-19T00:49:31.466Z,7.21
2016-10-19T00:50:31.489Z,7.04
2016-10-19T00:51:30.880Z,7.03
2016-10-19T00:52:31.508Z,7.05
2016-10-19T00:53:31.551Z,7.07
2016-10-19T00:54:30.989Z,7.07
2016-10-19T00:55:31.271Z,7.07
2016-10-19T00:56:31.589Z,7.05
2016-10-19T00:57:31.650Z,7.03
2016-10-19T00:58:31.380Z,7.03
2016-10-19T00:59:31.719Z,7.03
2016-10-19T01:00:31.706Z,6.96
2016-10-19T01:01:31.671Z,7.03
2016-10-19T01:02:31.690Z,6.97
2016-10-19T01:03:31.713Z,7.03
2016-10-19T01:04:31.722Z,7.03
2016-10-19T01:05:31.740Z,6.97
2016-10-19T01:06:31.431Z,7.01
2016-10-19T01:07:31.778Z,7.01
2016-10-19T01:08:31.821Z,6.96
2016-10-19T01:09:31.322Z,6.95
2016-10-19T01:10:31.517Z,6.96
2016-10-19T01:11:31.859Z,6.92
2016-10-19T01:12:31.850Z,7.01
2016-10-19T01:13:31.581Z,6.86
2016-10-19T01:14:31.579Z,6.89
2016-10-19T01:15:31.599Z,6.93
2016-10-19T01:16:31.608Z,6.92
2016-10-19T01:17:31.969Z,6.89
2016-10-19T01:18:31.952Z,6.83
2016-10-19T01:19:31.648Z,6.87
2016-10-19T01:20:31.789Z,6.9
2016-10-19T01:21:32.000Z,6.83
2016-10-19T01:22:32.018Z,6.82
2016-10-19T01:23:31.415Z,6.77
2016-10-19T01:24:31.751Z,6.74
2016-10-19T01:25:32.079Z,6.8
2016-10-19T01:26:31.871Z,6.71
2016-10-19T01:27:31.789Z,6.7
2016-10-19T01:28:32.122Z,6.67
2016-10-19T01:29:32.126Z,6.71
2016-10-19T01:30:32.140Z,6.72
2016-10-19T01:31:32.157Z,6.7
2016-10-19T01:32:32.180Z,6.65
2016-10-19T01:33:32.195Z,6.7
2016-10-19T01:34:32.221Z,6.74
2016-10-19T01:35:31.932Z,6.7
2016-10-19T01:36:32.241Z,6.68
2016-10-19T01:37:31.950Z,6.68
2016-10-19T01:38:31.672Z,6.68
2016-10-19T01:39:31.994Z,6.7
2016-10-19T01:40:32.321Z,6.67
2016-10-19T01:41:32.022Z,6.68
2016-10-19T01:42:32.030Z,6.62
2016-10-19T01:43:32.052Z,6.64
2016-10-19T01:44:32.389Z,6.62
2016-10-19T01:45:32.090Z,6.59
2016-10-19T01:46:32.413Z,6.52
2016-10-19T01:47:32.422Z,6.5
2016-10-19T01:48:32.461Z,6.54
2016-10-19T01:49:32.481Z,6.46
2016-10-19T01:50:32.479Z,6.41
2016-10-19T01:51:32.490Z,6.39
2016-10-19T01:52:32.597Z,6.43
2016-10-19T01:53:32.220Z,6.38
2016-10-19T01:54:31.924Z,6.43
2016-10-19T01:55:32.260Z,6.41
2016-10-19T01:56:32.577Z,6.41
2016-10-19T01:57:32.602Z,6.39
2016-10-19T01:58:32.600Z,6.35
2016-10-19T01:59:32.629Z,6.44
2016-10-19T02:00:32.340Z,6.36
2016-10-19T02:01:32.660Z,6.41
2016-10-19T02:02:32.680Z,6.32
2016-10-19T02:03:32.695Z,6.34
2016-10-19T02:04:32.701Z,6.31
2016-10-19T02:05:32.420Z,6.34
2016-10-19T02:06:32.428Z,6.36
2016-10-19T02:07:32.762Z,6.32
2016-10-19T02:08:32.778Z,6.34
2016-10-19T02:09:32.791Z,6.31
2016-10-19T02:10:32.810Z,6.41
2016-10-19T02:11:32.517Z,6.38
2016-10-19T02:12:32.831Z,6.47
2016-10-19T02:13:32.847Z,6.59
2016-10-19T02:14:32.567Z,6.52
2016-10-19T02:15:32.885Z,6.62
2016-10-19T02:16:32.896Z,6.59
2016-10-19T02:17:32.730Z,6.65
2016-10-19T02:18:32.940Z,6.64
2016-10-19T02:19:33.062Z,6.59
2016-10-19T02:20:33.073Z,6.57
2016-10-19T02:21:32.387Z,6.57
2016-10-19T02:22:33.009Z,6.62
2016-10-19T02:23:33.050Z,6.62
2016-10-19T02:24:33.032Z,6.62
2016-10-19T02:25:32.748Z,6.6
2016-10-19T02:26:33.071Z,6.62
2016-10-19T02:27:33.091Z,6.59
2016-10-19T02:28:32.779Z,6.67
2016-10-19T02:29:33.121Z,6.7
2016-10-19T02:30:32.941Z,6.65
2016-10-19T02:31:33.165Z,6.64
2016-10-19T02:32:32.541Z,6.64
2016-10-19T02:33:33.194Z,6.71
2016-10-19T02:34:32.883Z,6.65
2016-10-19T02:35:32.587Z,6.75
2016-10-19T02:36:33.234Z,6.75
2016-10-19T02:37:32.621Z,6.68
2016-10-19T02:38:33.263Z,6.75
2016-10-19T02:39:33.024Z,6.75
2016-10-19T02:40:33.122Z,6.83
2016-10-19T02:41:33.341Z,6.85
2016-10-19T02:42:33.021Z,6.86
2016-10-19T02:43:33.132Z,6.89
2016-10-19T02:44:33.057Z,6.96
2016-10-19T02:45:33.188Z,7.01
2016-10-19T02:46:33.494Z,7
2016-10-19T02:47:33.456Z,7.01
2016-10-19T02:48:33.466Z,7.04
2016-10-19T02:49:33.562Z,7
2016-10-19T02:50:33.142Z,7.19
2016-10-19T02:51:33.532Z,7.14
2016-10-19T02:52:33.195Z,7.15
2016-10-19T02:53:33.211Z,7.07
2016-10-19T02:54:33.533Z,7.03
2016-10-19T02:55:33.226Z,7.05
2016-10-19T02:56:33.567Z,7.07
2016-10-19T02:57:33.575Z,6.97
2016-10-19T02:58:33.293Z,7.13
2016-10-19T02:59:33.744Z,7.05
2016-10-19T03:00:33.676Z,7.04
2016-10-19T03:01:33.650Z,6.97
2016-10-19T03:02:34.112Z,7.01
2016-10-19T03:03:33.783Z,7.04
2016-10-19T03:04:33.580Z,7.07
2016-10-19T03:05:33.606Z,7.05
2016-10-19T03:06:33.619Z,7.03
2016-10-19T03:07:33.754Z,7.05
2016-10-19T03:08:33.764Z,7.07
2016-10-19T03:09:33.680Z,7
2016-10-19T03:10:33.802Z,7.05
2016-10-19T03:11:33.830Z,7.04
2016-10-19T03:12:34.286Z,7.03
2016-10-19T03:13:33.923Z,6.97
2016-10-19T03:14:33.678Z,7
2016-10-19T03:15:33.686Z,7.04
2016-10-19T03:16:33.936Z,6.95
2016-10-19T03:17:33.709Z,6.96
2016-10-19T03:18:33.957Z,6.92
2016-10-19T03:19:33.695Z,6.89
2016-10-19T03:20:33.962Z,6.96
2016-10-19T03:21:33.989Z,6.95
2016-10-19T03:22:33.989Z,6.96
2016-10-19T03:23:33.767Z,6.96
2016-10-19T03:24:33.767Z,6.97
2016-10-19T03:25:34.056Z,6.95
2016-10-19T03:26:33.444Z,7
2016-10-19T03:27:34.137Z,7.04
2016-10-19T03:28:34.095Z,7.03
2016-10-19T03:29:34.257Z,7.03
2016-10-19T03:30:34.124Z,7.05
2016-10-19T03:31:34.216Z,7.1
2016-10-19T03:32:34.166Z,7.04
2016-10-19T03:33:34.189Z,7.03
2016-10-19T03:34:34.195Z,7.05
2016-10-19T03:35:34.211Z,7.15
2016-10-19T03:36:34.286Z,7.05
2016-10-19T03:37:34.256Z,7.13
2016-10-19T03:38:33.946Z,7.03
2016-10-19T03:39:34.279Z,7.04
2016-10-19T03:40:33.986Z,7.03
2016-10-19T03:41:34.357Z,7.05
2016-10-19T03:42:34.386Z,7.05
2016-10-19T03:43:34.366Z,7.01
2016-10-19T03:44:34.359Z,7.04
2016-10-19T03:45:34.382Z,7.05
2016-10-19T03:46:34.387Z,7.14
2016-10-19T03:47:33.895Z,7.14
2016-10-19T03:48:34.427Z,7.05
2016-10-19T03:49:34.449Z,7.08
2016-10-19T03:50:34.158Z,7.13
2016-10-19T03:51:34.179Z,7.04
2016-10-19T03:52:34.497Z,7.07
2016-10-19T03:53:34.509Z,7.19
2016-10-19T03:54:34.529Z,7.14
2016-10-19T03:55:33.949Z,7.08
2016-10-19T03:56:34.251Z,7.14
2016-10-19T03:57:34.259Z,7.15
2016-10-19T03:58:34.288Z,7.14
2016-10-19T03:59:34.631Z,7.19
2016-10-19T04:00:34.325Z,7.14
2016-10-19T04:01:34.426Z,7.14
2016-10-19T04:02:34.663Z,7.23
2016-10-19T04:03:34.378Z,7.18
2016-10-19T04:04:34.081Z,7.15
2016-10-19T04:05:34.421Z,7.15
2016-10-19T04:06:34.425Z,7.15
2016-10-19T04:07:34.751Z,7.13
2016-10-19T04:08:34.760Z,7.19
2016-10-19T04:09:34.171Z,7.19
2016-10-19T04:10:34.850Z,7.22
2016-10-19T04:11:34.823Z,7.19
2016-10-19T04:12:34.841Z,7.25
2016-10-19T04:13:34.855Z,7.22
2016-10-19T04:14:34.550Z,7.32
2016-10-19T04:15:34.881Z,7.23
2016-10-19T04:16:34.281Z,7.28
2016-10-19T04:17:34.618Z,7.28
2016-10-19T04:18:34.939Z,7.22
2016-10-19T04:19:34.633Z,7.29
2016-10-19T04:20:34.798Z,7.22
2016-10-19T04:21:34.675Z,7.26
2016-10-19T04:22:35.009Z,7.29
2016-10-19T04:23:35.115Z,7.26
2016-10-19T04:24:35.085Z,7.37
2016-10-19T04:25:34.731Z,7.26
2016-10-19T04:26:35.051Z,7.31
2016-10-19T04:27:35.125Z,7.32
2016-10-19T04:28:35.093Z,7.4
2016-10-19T04:29:35.112Z,7.36
2016-10-19T04:30:35.148Z,7.32
2016-10-19T04:31:34.526Z,7.33
2016-10-19T04:32:35.149Z,7.37
2016-10-19T04:33:34.879Z,7.39
2016-10-19T04:34:34.901Z,7.41
2016-10-19T04:35:34.902Z,7.43
2016-10-19T04:36:34.924Z,7.48
2016-10-19T04:37:34.629Z,7.5
2016-10-19T04:38:35.280Z,7.51
2016-10-19T04:39:35.309Z,7.53
2016-10-19T04:40:35.401Z,7.53
2016-10-19T04:41:35.328Z,7.58
2016-10-19T04:42:35.338Z,7.51
2016-10-19T04:43:35.051Z,7.61
2016-10-19T04:44:35.372Z,7.5
2016-10-19T04:45:35.386Z,7.48
2016-10-19T04:46:35.409Z,7.59
2016-10-19T04:47:35.435Z,7.59
2016-10-19T04:48:35.441Z,7.58
2016-10-19T04:49:35.227Z,7.55
2016-10-19T04:50:35.469Z,7.66
2016-10-19T04:51:35.651Z,7.69
2016-10-19T04:52:35.556Z,7.62
2016-10-19T04:53:35.252Z,7.58
2016-10-19T04:54:35.222Z,7.7
2016-10-19T04:55:35.240Z,7.74
2016-10-19T04:56:35.260Z,7.75
2016-10-19T04:57:35.286Z,7.87
2016-10-19T04:58:35.297Z,7.74
2016-10-19T04:59:35.632Z,7.87
2016-10-19T05:00:35.639Z,7.77
2016-10-19T05:01:35.680Z,7.7
2016-10-19T05:02:35.793Z,7.78
2016-10-19T05:03:35.782Z,7.7
2016-10-19T05:04:35.504Z,7.7
2016-10-19T05:05:35.726Z,7.8
2016-10-19T05:06:35.793Z,7.78
2016-10-19T05:07:35.450Z,7.72
2016-10-19T05:08:35.780Z,7.77
2016-10-19T05:09:35.799Z,7.8
2016-10-19T05:10:35.857Z,7.78
2016-10-19T05:11:35.514Z,7.74
2016-10-19T05:12:35.543Z,7.77
2016-10-19T05:13:35.872Z,7.72
2016-10-19T05:14:35.569Z,7.78
2016-10-19T05:15:35.587Z,7.7
2016-10-19T05:16:35.611Z,7.72
2016-10-19T05:17:35.391Z,7.77
2016-10-19T05:18:35.961Z,7.75
2016-10-19T05:19:36.030Z,7.8
2016-10-19T05:20:35.958Z,7.78
2016-10-19T05:21:35.735Z,7.69
2016-10-19T05:22:35.997Z,7.8
2016-10-19T05:23:36.031Z,7.74
2016-10-19T05:24:36.051Z,7.77
2016-10-19T05:25:35.779Z,7.83
2016-10-19T05:26:35.782Z,7.75
2016-10-19T05:27:36.099Z,7.84
2016-10-19T05:28:36.122Z,7.87
2016-10-19T05:29:35.857Z,7.87
2016-10-19T05:30:36.248Z,7.84
2016-10-19T05:31:36.181Z,7.85
2016-10-19T05:32:35.600Z,7.88
2016-10-19T05:33:36.205Z,7.85
2016-10-19T05:34:35.960Z,7.87
2016-10-19T05:35:36.265Z,7.78
2016-10-19T05:36:36.257Z,7.83
2016-10-19T05:37:35.960Z,7.84
2016-10-19T05:38:36.015Z,7.81
2016-10-19T05:39:36.000Z,7.84
2016-10-19T05:40:36.308Z,7.87
2016-10-19T05:41:36.019Z,7.93
2016-10-19T05:42:36.360Z,7.87
2016-10-19T05:43:36.066Z,7.8
2016-10-19T05:44:35.765Z,7.84
2016-10-19T05:45:36.419Z,7.84
2016-10-19T05:46:36.115Z,7.9
2016-10-19T05:47:36.430Z,7.91
2016-10-19T05:48:36.461Z,7.85
2016-10-19T05:49:36.158Z,7.84
2016-10-19T05:50:36.179Z,7.8
2016-10-19T05:51:36.181Z,7.87
2016-10-19T05:52:36.517Z,7.88
2016-10-19T05:53:36.230Z,7.87
2016-10-19T05:54:36.561Z,7.96
2016-10-19T05:55:36.581Z,7.93
2016-10-19T05:56:36.658Z,7.98
2016-10-19T05:57:36.631Z,8.05
2016-10-19T05:58:36.632Z,8.03
2016-10-19T05:59:36.644Z,8.05
2016-10-19T06:00:36.662Z,8.03
2016-10-19T06:01:36.690Z,8.03
2016-10-19T06:02:36.730Z,8.06
2016-10-19T06:03:36.709Z,8.03
2016-10-19T06:04:36.738Z,8.17
2016-10-19T06:05:36.771Z,8.2
2016-10-19T06:06:36.750Z,8.18
2016-10-19T06:07:36.781Z,8.21
2016-10-19T06:08:36.874Z,8.31
2016-10-19T06:09:36.821Z,8.35
2016-10-19T06:10:36.831Z,8.28
2016-10-19T06:11:36.543Z,8.31
2016-10-19T06:12:36.869Z,8.31
2016-10-19T06:13:36.890Z,8.28
2016-10-19T06:14:36.591Z,8.24
2016-10-19T06:15:36.911Z,8.34
2016-10-19T06:16:36.936Z,8.36
2016-10-19T06:17:36.949Z,8.31
2016-10-19T06:18:36.972Z,8.38
2016-10-19T06:19:36.978Z,8.36
2016-10-19T06:20:36.997Z,8.38
2016-10-19T06:21:37.020Z,8.36
2016-10-19T06:22:37.031Z,8.42
2016-10-19T06:23:37.191Z,8.46
2016-10-19T06:24:37.188Z,8.44
2016-10-19T06:25:36.808Z,8.36
2016-10-19T06:26:36.787Z,8.5
2016-10-19T06:27:37.167Z,8.5
2016-10-19T06:28:36.848Z,8.63
2016-10-19T06:29:37.426Z,8.49
2016-10-19T06:30:37.181Z,8.57
2016-10-19T06:31:36.892Z,8.56
2016-10-19T06:32:37.347Z,8.66
2016-10-19T06:33:37.530Z,8.66
2016-10-19T06:34:37.440Z,8.6
2016-10-19T06:35:37.477Z,8.69
2016-10-19T06:36:37.722Z,8.71
2016-10-19T06:37:37.189Z,8.72
2016-10-19T06:38:37.880Z,8.74
2016-10-19T06:39:37.245Z,8.72
2016-10-19T06:40:37.041Z,8.72
2016-10-19T06:41:37.520Z,8.71
2016-10-19T06:42:37.770Z,8.75
2016-10-19T06:43:37.555Z,8.74
2016-10-19T06:44:37.351Z,8.71
2016-10-19T06:45:37.229Z,8.71
2016-10-19T06:46:37.583Z,8.82
2016-10-19T06:47:37.168Z,8.79
2016-10-19T06:48:37.275Z,8.82
2016-10-19T06:49:37.487Z,8.84
2016-10-19T06:50:37.629Z,8.89
2016-10-19T06:51:37.828Z,8.9
2016-10-19T06:52:37.629Z,8.9
2016-10-19T06:53:37.880Z,8.97
2016-10-19T06:54:37.645Z,9.03
2016-10-19T06:55:37.813Z,9.08
2016-10-19T06:56:37.307Z,9.11
2016-10-19T06:57:37.789Z,9.16
2016-10-19T06:58:37.648Z,9.18
2016-10-19T06:59:37.891Z,9.21
2016-10-19T07:00:37.699Z,9.15
2016-10-19T07:01:37.458Z,9.22
2016-10-19T07:02:37.650Z,9.18
2016-10-19T07:03:37.788Z,9.16
2016-10-19T07:04:37.810Z,9.15
2016-10-19T07:05:37.629Z,9.26
2016-10-19T07:06:37.797Z,9.3
2016-10-19T07:07:37.511Z,9.29
2016-10-19T07:08:37.947Z,9.29
2016-10-19T07:09:37.858Z,9.3
2016-10-19T07:10:37.959Z,9.42
2016-10-19T07:11:37.898Z,9.47
2016-10-19T07:12:37.618Z,9.56
2016-10-19T07:13:37.933Z,9.59
2016-10-19T07:14:37.989Z,9.64
2016-10-19T07:15:37.967Z,9.69
2016-10-19T07:16:38.047Z,9.73
2016-10-19T07:17:37.685Z,9.74
2016-10-19T07:18:38.089Z,9.81
2016-10-19T07:19:38.037Z,9.84
2016-10-19T07:20:38.103Z,9.85
2016-10-19T07:21:37.754Z,9.87
2016-10-19T07:22:38.098Z,9.9
2016-10-19T07:23:37.808Z,9.9
2016-10-19T07:24:37.836Z,9.95
2016-10-19T07:25:37.846Z,9.95
2016-10-19T07:26:38.163Z,10.06
2016-10-19T07:27:38.179Z,10.07
2016-10-19T07:28:38.203Z,10.07
2016-10-19T07:29:38.256Z,10.07
2016-10-19T07:30:38.235Z,10.2
2016-10-19T07:31:37.989Z,10.13
2016-10-19T07:32:37.968Z,10.05
2016-10-19T07:33:38.326Z,10.06
2016-10-19T07:34:38.357Z,10.07
2016-10-19T07:35:38.328Z,10.07
2016-10-19T07:36:38.045Z,10.18
2016-10-19T07:37:38.371Z,10.09
2016-10-19T07:38:38.416Z,10.15
2016-10-19T07:39:38.406Z,10.28
2016-10-19T07:40:38.428Z,10.23
2016-10-19T07:41:38.138Z,10.33
2016-10-19T07:42:38.149Z,10.27
2016-10-19T07:43:38.176Z,10.42
2016-10-19T07:44:38.545Z,10.43
2016-10-19T07:45:38.216Z,10.57
2016-10-19T07:46:37.918Z,10.65
2016-10-19T07:47:38.545Z,10.69
2016-10-19T07:48:38.267Z,10.76
2016-10-19T07:49:38.596Z,10.77
2016-10-19T07:50:38.656Z,10.89
2016-10-19T07:51:38.627Z,10.86
2016-10-19T07:52:38.648Z,10.95
2016-10-19T07:53:38.667Z,10.95
2016-10-19T07:54:38.384Z,10.97
2016-10-19T07:55:38.396Z,11.02
2016-10-19T07:56:38.723Z,11.26
2016-10-19T07:57:38.118Z,11.27
2016-10-19T07:58:38.767Z,11.4
2016-10-19T07:59:38.476Z,11.55
2016-10-19T08:00:38.787Z,11.71
2016-10-19T08:01:38.838Z,11.76
2016-10-19T08:02:38.227Z,11.85
2016-10-19T08:03:38.243Z,11.8
2016-10-19T08:04:38.869Z,11.97
2016-10-19T08:05:38.636Z,12.02
2016-10-19T08:06:38.915Z,12.02
2016-10-19T08:07:38.636Z,12.2
2016-10-19T08:08:38.647Z,12.12
2016-10-19T08:09:39.030Z,12.17
2016-10-19T08:10:38.687Z,12.2
2016-10-19T08:11:39.068Z,12.14
2016-10-19T08:12:39.048Z,12.14
2016-10-19T08:13:39.058Z,11.99
2016-10-19T08:14:39.079Z,11.95
2016-10-19T08:15:39.096Z,12
2016-10-19T08:16:39.107Z,12.03
2016-10-19T08:17:39.122Z,12.03
2016-10-19T08:18:39.291Z,12.08
2016-10-19T08:19:39.179Z,12.08
2016-10-19T08:20:38.906Z,12.02
2016-10-19T08:21:38.909Z,12.05
2016-10-19T08:22:39.293Z,11.96
2016-10-19T08:23:38.938Z,11.88
2016-10-19T08:24:39.276Z,11.86
2016-10-19T08:25:39.297Z,11.81
2016-10-19T08:26:38.725Z,11.81
2016-10-19T08:27:39.324Z,11.83
2016-10-19T08:28:39.354Z,11.86
2016-10-19T08:29:39.223Z,11.93
2016-10-19T08:30:39.385Z,11.86
2016-10-19T08:31:39.410Z,12.05
2016-10-19T08:32:39.232Z,12.29
2016-10-19T08:33:39.445Z,12.53
2016-10-19T08:34:39.165Z,12.62
2016-10-19T08:35:39.163Z,12.73
2016-10-19T08:36:39.020Z,12.73
2016-10-19T08:37:39.522Z,12.75
2016-10-19T08:38:39.544Z,12.72
2016-10-19T08:39:39.576Z,12.7
2016-10-19T08:40:39.592Z,12.68
2016-10-19T08:41:39.616Z,12.55
2016-10-19T08:42:39.637Z,12.58
2016-10-19T08:43:39.936Z,12.61
2016-10-19T08:44:39.800Z,12.73
2016-10-19T08:45:39.425Z,12.69
2016-10-19T08:46:39.483Z,12.87
2016-10-19T08:47:39.794Z,12.84
2016-10-19T08:48:39.844Z,12.88
2016-10-19T08:49:39.825Z,12.73
2016-10-19T08:50:39.820Z,12.81
2016-10-19T08:51:39.812Z,12.84
2016-10-19T08:52:39.344Z,12.83
2016-10-19T08:53:39.545Z,12.87
2016-10-19T08:54:39.858Z,12.73
2016-10-19T08:55:39.882Z,12.83
2016-10-19T08:56:39.429Z,12.95
2016-10-19T08:57:39.932Z,12.98
2016-10-19T08:58:39.969Z,12.99
2016-10-19T08:59:39.960Z,12.94
2016-10-19T09:00:39.733Z,12.86
2016-10-19T09:01:40.010Z,12.95
2016-10-19T09:02:39.712Z,12.95
2016-10-19T09:03:40.054Z,12.94
2016-10-19T09:04:39.772Z,12.95
2016-10-19T09:05:40.094Z,13.01
2016-10-19T09:06:40.099Z,13.09
2016-10-19T09:07:39.822Z,13.06
2016-10-19T09:08:39.535Z,13.19
2016-10-19T09:09:40.200Z,13.24
2016-10-19T09:10:40.187Z,13.4
2016-10-19T09:11:40.216Z,13.49
2016-10-19T09:12:39.624Z,13.7
2016-10-19T09:13:40.049Z,13.85
2016-10-19T09:14:39.960Z,13.85
2016-10-19T09:15:40.303Z,13.94
2016-10-19T09:16:40.004Z,13.85
2016-10-19T09:17:40.333Z,13.8
2016-10-19T09:18:40.352Z,13.71
2016-10-19T09:19:39.760Z,13.73
2016-10-19T09:20:40.411Z,13.71
2016-10-19T09:21:40.136Z,13.62
2016-10-19T09:22:40.130Z,13.55
2016-10-19T09:23:39.843Z,13.49
2016-10-19T09:24:40.179Z,13.46
2016-10-19T09:25:40.202Z,13.52
2016-10-19T09:26:40.211Z,13.55
2016-10-19T09:27:40.549Z,13.58
2016-10-19T09:28:40.556Z,13.64
2016-10-19T09:29:40.589Z,13.7
2016-10-19T09:30:40.611Z,13.78
2016-10-19T09:31:40.621Z,13.93
2016-10-19T09:32:40.370Z,14.13
2016-10-19T09:33:40.720Z,14.25
2016-10-19T09:34:40.383Z,14.37
2016-10-19T09:35:40.414Z,14.56
2016-10-19T09:36:40.733Z,14.56
2016-10-19T09:37:40.434Z,14.58
2016-10-19T09:38:40.469Z,14.34
2016-10-19T09:39:40.801Z,14.25
2016-10-19T09:40:40.821Z,14.05
2016-10-19T09:41:40.861Z,13.98
2016-10-19T09:42:40.901Z,13.85
2016-10-19T09:43:40.875Z,13.71
2016-10-19T09:44:40.600Z,13.7
2016-10-19T09:45:40.930Z,13.8
2016-10-19T09:46:40.939Z,13.8
2016-10-19T09:47:41.027Z,13.85
2016-10-19T09:48:40.691Z,13.82
2016-10-19T09:49:40.958Z,13.71
2016-10-19T09:50:41.251Z,13.61
2016-10-19T09:51:40.950Z,13.46
2016-10-19T09:52:41.272Z,13.39
2016-10-19T09:53:41.221Z,13.4
2016-10-19T09:54:41.420Z,13.36
2016-10-19T09:55:40.976Z,13.28
2016-10-19T09:56:41.528Z,13.23
2016-10-19T09:57:41.332Z,13.17
2016-10-19T09:58:41.019Z,13.19
2016-10-19T09:59:40.701Z,13.27
2016-10-19T10:00:41.347Z,13.31
2016-10-19T10:01:41.016Z,13.39
2016-10-19T10:02:41.040Z,13.39
2016-10-19T10:03:41.348Z,13.47
2016-10-19T10:04:41.329Z,13.47
2016-10-19T10:05:41.331Z,13.47
2016-10-19T10:06:41.383Z,13.61
2016-10-19T10:07:41.390Z,13.68
2016-10-19T10:08:41.159Z,13.78
2016-10-19T10:09:41.447Z,13.8
2016-10-19T10:10:41.560Z,13.89
2016-10-19T10:11:41.157Z,13.98
2016-10-19T10:12:41.600Z,13.97
2016-10-19T10:13:40.900Z,13.82
2016-10-19T10:14:41.569Z,13.94
2016-10-19T10:15:41.560Z,14
2016-10-19T10:16:41.628Z,14.19
2016-10-19T10:17:41.599Z,14.2
2016-10-19T10:18:41.650Z,14.43
2016-10-19T10:19:41.639Z,14.33
2016-10-19T10:20:41.498Z,14.36
2016-10-19T10:21:41.739Z,14.31
2016-10-19T10:22:41.701Z,14.34
2016-10-19T10:23:41.729Z,14.4
2016-10-19T10:24:41.811Z,14.4
2016-10-19T10:25:41.770Z,14.38
2016-10-19T10:26:41.495Z,14.48
2016-10-19T10:27:41.500Z,14.36
2016-10-19T10:28:41.890Z,14.41
2016-10-19T10:29:41.836Z,14.36
2016-10-19T10:30:41.867Z,14.25
2016-10-19T10:31:41.900Z,14.22
2016-10-19T10:32:41.909Z,14.15
2016-10-19T10:33:41.930Z,14.01
2016-10-19T10:34:41.950Z,13.79
2016-10-19T10:35:41.957Z,13.64
2016-10-19T10:36:42.045Z,13.24
2016-10-19T10:37:41.710Z,13.24
2016-10-19T10:38:42.095Z,12.94
2016-10-19T10:39:42.045Z,12.94
2016-10-19T10:40:42.076Z,12.94
2016-10-19T10:41:42.101Z,12.75
2016-10-19T10:42:41.807Z,12.62
2016-10-19T10:43:41.529Z,12.73
2016-10-19T10:44:41.899Z,12.68
2016-10-19T10:45:42.194Z,12.72
2016-10-19T10:46:42.220Z,12.76
2016-10-19T10:47:42.218Z,12.73
2016-10-19T10:48:42.241Z,12.65
2016-10-19T10:49:42.409Z,12.76
2016-10-19T10:50:42.287Z,12.75
2016-10-19T10:51:42.361Z,12.84
2016-10-19T10:52:42.361Z,12.73
2016-10-19T10:53:42.030Z,12.61
2016-10-19T10:54:42.370Z,12.58
2016-10-19T10:55:42.399Z,12.73
2016-10-19T10:56:42.101Z,12.58
2016-10-19T10:57:42.316Z,12.48
2016-10-19T10:58:42.450Z,12.48
2016-10-19T10:59:42.159Z,12.47
2016-10-19T11:00:42.529Z,12.37
2016-10-19T11:01:42.518Z,12.35
2016-10-19T11:02:42.210Z,12.3
2016-10-19T11:03:42.580Z,12.12
2016-10-19T11:04:42.581Z,12.25
2016-10-19T11:05:42.620Z,12.37
2016-10-19T11:06:42.818Z,12.43
2016-10-19T11:07:42.631Z,12.39
2016-10-19T11:08:42.659Z,12.37
2016-10-19T11:09:42.668Z,12.43
2016-10-19T11:10:42.071Z,12.47
2016-10-19T11:11:42.719Z,12.45
2016-10-19T11:12:42.419Z,12.36
2016-10-19T11:13:42.441Z,12.37
2016-10-19T11:14:42.769Z,12.26
2016-10-19T11:15:42.489Z,12.1
2016-10-19T11:16:42.841Z,11.96
2016-10-19T11:17:42.561Z,11.95
2016-10-19T11:18:42.861Z,11.89
2016-10-19T11:19:42.877Z,11.86
2016-10-19T11:20:42.876Z,11.77
2016-10-19T11:21:42.653Z,11.74
2016-10-19T11:22:42.627Z,11.73
2016-10-19T11:23:42.960Z,11.62
2016-10-19T11:24:42.974Z,11.73
2016-10-19T11:25:42.689Z,11.67
2016-10-19T11:26:42.702Z,11.74
2016-10-19T11:27:42.422Z,11.8
2016-10-19T11:28:42.740Z,11.83
2016-10-19T11:29:43.083Z,11.86
2016-10-19T11:30:43.091Z,11.85
2016-10-19T11:31:43.121Z,11.8
2016-10-19T11:32:43.131Z,11.88
2016-10-19T11:33:43.162Z,12.05
2016-10-19T11:34:43.165Z,12.15
2016-10-19T11:35:43.189Z,12.12
2016-10-19T11:36:43.031Z,12.11
2016-10-19T11:37:42.918Z,12.1
2016-10-19T11:39:15.050Z,12.12
2016-10-19T11:39:43.323Z,12.14
2016-10-19T11:40:43.309Z,12.3
2016-10-19T11:41:43.003Z,12.32
2016-10-19T11:42:43.330Z,12.4
2016-10-19T11:43:43.360Z,12.33
2016-10-19T11:44:43.409Z,12.35
2016-10-19T11:45:43.079Z,12.14
2016-10-19T11:46:43.105Z,12.08
2016-10-19T11:47:43.472Z,11.93
2016-10-19T11:48:43.452Z,11.86
2016-10-19T11:49:43.162Z,11.83
2016-10-19T11:50:43.192Z,11.81
2016-10-19T11:51:43.663Z,11.88
2016-10-19T11:52:43.547Z,11.85
2016-10-19T11:53:43.560Z,11.78
2016-10-19T11:54:43.595Z,11.71
2016-10-19T11:55:43.592Z,11.83
2016-10-19T11:56:43.300Z,11.77
2016-10-19T11:57:43.643Z,11.91
2016-10-19T11:58:43.673Z,11.91
2016-10-19T11:59:43.664Z,11.97
2016-10-19T12:00:43.559Z,12.08
2016-10-19T12:01:43.393Z,12.05
2016-10-19T12:02:43.823Z,11.96
2016-10-19T12:03:43.818Z,11.95
2016-10-19T12:04:43.823Z,11.97
2016-10-19T12:05:43.799Z,11.95
2016-10-19T12:06:43.870Z,11.93
2016-10-19T12:07:43.833Z,11.86
2016-10-19T12:08:43.840Z,11.95
2016-10-19T12:09:43.871Z,11.93
2016-10-19T12:10:43.901Z,11.93
2016-10-19T12:11:43.893Z,11.93
2016-10-19T12:12:43.930Z,11.99
2016-10-19T12:13:43.947Z,11.96
2016-10-19T12:14:44.059Z,11.96
2016-10-19T12:15:44.001Z,11.93
2016-10-19T12:16:44.045Z,11.88
2016-10-19T12:17:44.008Z,11.93
2016-10-19T12:18:44.100Z,11.73
2016-10-19T12:19:43.757Z,11.65
2016-10-19T12:20:44.101Z,11.58
2016-10-19T12:21:44.110Z,11.56
2016-10-19T12:22:44.121Z,11.53
2016-10-19T12:23:44.130Z,11.56
2016-10-19T12:24:43.847Z,11.56
2016-10-19T12:25:44.188Z,11.6
2016-10-19T12:26:44.206Z,11.49
2016-10-19T12:27:44.030Z,11.62
2016-10-19T12:28:44.259Z,11.45
2016-10-19T12:29:44.319Z,11.38
2016-10-19T12:30:44.278Z,11.52
2016-10-19T12:31:44.351Z,11.49
2016-10-19T12:32:44.009Z,11.45
2016-10-19T12:33:44.349Z,11.49
2016-10-19T12:34:44.345Z,11.43
2016-10-19T12:35:44.390Z,11.38
2016-10-19T12:36:44.400Z,11.35
2016-10-19T12:37:44.409Z,11.19
2016-10-19T12:38:44.429Z,11.25
2016-10-19T12:39:44.459Z,11.33
2016-10-19T12:40:44.466Z,11.25
2016-10-19T12:42:16.479Z,11.15
2016-10-19T12:42:44.522Z,11.1
2016-10-19T12:43:44.536Z,11.01
2016-10-19T12:44:44.562Z,10.95
2016-10-19T12:45:44.565Z,11.02
2016-10-19T12:46:44.600Z,11.01
2016-10-19T12:47:44.681Z,11
2016-10-19T12:48:44.325Z,11.01
2016-10-19T12:49:44.652Z,10.98
2016-10-19T12:50:44.673Z,11.05
2016-10-19T12:51:44.682Z,11.02
2016-10-19T12:52:44.422Z,11.04
2016-10-19T12:53:44.808Z,11.2
2016-10-19T12:54:44.741Z,11.25
2016-10-19T12:55:44.783Z,11.23
2016-10-19T12:56:44.781Z,11.33
2016-10-19T12:57:44.811Z,11.4
2016-10-19T12:58:44.821Z,11.49
2016-10-19T12:59:44.834Z,11.59
2016-10-19T13:00:44.859Z,11.58
2016-10-19T13:01:44.878Z,11.62
2016-10-19T13:02:44.919Z,11.65
2016-10-19T13:03:44.919Z,11.65
2016-10-19T13:04:44.984Z,11.8
2016-10-19T13:05:44.766Z,11.77
2016-10-19T13:06:44.663Z,11.7
2016-10-19T13:07:44.991Z,11.63
2016-10-19T13:08:45.023Z,11.7
2016-10-19T13:09:44.754Z,11.74
2016-10-19T13:10:44.740Z,11.77